Time;durP1;ratioP1;P1;durP2;ratioP2;P2;SDS_P1;SDS_P2;PMS_P1;PMS_P2;Temp;Humidity;BMP_temperature;BMP_pressure;BME280_temperature;BME280_humidity;BME280_pressure;Samples;Min_cycle;Max_cycle;Signal;HPM_P1;HPM_P2
2023/09/09 00:00:49;;;;;;;219.18;164.05;;;;;;;19.40;100.00;101468.72;5035427;28;20549;-51
2023/09/09 00:03:15;;;;;;;215.23;160.35;;;;;;;19.29;100.00;101455.13;5034182;28;20049;-50
2023/09/09 00:05:40;;;;;;;224.98;163.45;;;;;;;18.75;100.00;101364.94;5046805;28;20048;-52
2023/09/09 00:08:06;;;;;;;233.82;173.75;;;;;;;19.35;100.00;101488.59;5020708;28;20041;-48
2023/09/09 00:10:36;;;;;;;218.43;166.13;;;;;;;19.24;100.00;101461.66;5036377;28;20078;-49
2023/09/09 00:13:03;;;;;;;234.35;173.38;;;;;;;19.33;100.00;101475.31;5012838;28;20036;-49
2023/09/09 00:15:29;;;;;;;216.88;163.13;;;;;;;19.28;100.00;101477.41;5028951;28;20040;-48
2023/09/09 00:17:55;;;;;;;233.50;171.77;;;;;;;19.03;100.00;101429.94;5019211;28;20041;-48
2023/09/09 00:20:32;;;;;;;217.30;160.18;;;;;;;19.26;100.00;101478.47;5016245;28;20044;-48
2023/09/09 00:22:57;;;;;;;226.00;170.82;;;;;;;19.20;100.00;101489.47;5033385;28;20041;-50
2023/09/09 00:25:23;;;;;;;229.48;169.93;;;;;;;19.18;100.00;101486.03;5033613;28;20041;-50
2023/09/09 00:27:48;;;;;;;232.25;166.52;;;;;;;19.15;100.00;101480.91;5042271;28;20141;-53
2023/09/09 00:30:13;;;;;;;227.32;166.45;;;;;;;18.72;100.00;101407.78;5013916;28;20482;-51
2023/09/09 00:32:39;;;;;;;231.95;167.93;;;;;;;18.92;100.00;101450.16;5013632;28;20347;-53
2023/09/09 00:35:04;;;;;;;229.82;166.02;;;;;;;19.01;100.00;101474.53;5014358;28;20101;-54
2023/09/09 00:37:30;;;;;;;226.35;164.00;;;;;;;18.78;100.00;101458.09;4996033;28;20046;-54
2023/09/09 00:39:55;;;;;;;249.05;170.77;;;;;;;18.82;100.00;101473.88;5013835;28;20036;-53
2023/09/09 00:42:20;;;;;;;220.75;160.07;;;;;;;18.79;100.00;101462.50;5028961;28;20044;-53
2023/09/09 00:44:46;;;;;;;217.00;152.68;;;;;;;18.82;100.00;101473.00;5012812;28;20042;-52
2023/09/09 00:47:11;;;;;;;230.63;164.98;;;;;;;18.79;100.00;101465.16;4997660;28;20033;-49
2023/09/09 00:49:37;;;;;;;229.77;161.95;;;;;;;18.73;100.00;101460.19;5032960;28;20087;-55
2023/09/09 00:52:02;;;;;;;227.02;164.15;;;;;;;18.51;100.00;101425.84;5033254;28;20033;-52
2023/09/09 00:54:27;;;;;;;221.15;161.20;;;;;;;18.63;100.00;101450.97;5032678;28;20048;-52
2023/09/09 00:56:55;;;;;;;233.25;166.60;;;;;;;18.24;100.00;101393.56;5026666;28;20117;-52
2023/09/09 00:59:20;;;;;;;241.98;168.20;;;;;;;18.09;100.00;101381.09;5028436;28;20017;-51
2023/09/09 01:01:46;;;;;;;220.02;159.00;;;;;;;18.50;100.00;101469.47;5012809;28;20030;-50
2023/09/09 01:04:11;;;;;;;223.50;157.52;;;;;;;18.44;100.00;101459.09;5028452;28;20038;-54
2023/09/09 01:06:37;;;;;;;213.70;156.93;;;;;;;17.98;100.00;101388.78;4995520;28;20030;-53
2023/09/09 01:09:06;;;;;;;239.05;168.50;;;;;;;18.39;100.00;101462.00;5033275;28;20059;-52
2023/09/09 01:11:32;;;;;;;233.43;169.80;;;;;;;18.34;100.00;101463.22;5032538;28;20056;-49
2023/09/09 01:13:57;;;;;;;231.73;167.48;;;;;;;18.32;100.00;101471.31;5031918;28;20127;-53
2023/09/09 01:16:23;;;;;;;240.25;171.95;;;;;;;17.99;100.00;101411.84;5047530;28;20482;-51
2023/09/09 01:18:49;;;;;;;246.10;174.23;;;;;;;17.91;100.00;101401.59;5027494;28;20033;-48
2023/09/09 01:21:16;;;;;;;237.38;172.15;;;;;;;17.91;100.00;101422.03;5012877;28;20038;-52
2023/09/09 01:23:41;;;;;;;236.82;171.48;;;;;;;18.21;100.00;101467.50;4995182;28;20037;-53
2023/09/09 01:26:07;;;;;;;242.63;175.32;;;;;;;18.25;100.00;101461.91;4997821;28;20032;-51
2023/09/09 01:28:32;;;;;;;257.70;181.73;;;;;;;17.92;100.00;101402.47;5032498;28;20037;-53
2023/09/09 01:30:58;;;;;;;234.55;169.77;;;;;;;18.30;100.00;101462.50;5030743;28;20427;-51
2023/09/09 01:33:23;;;;;;;252.35;174.82;;;;;;;18.28;100.00;101468.88;5047749;28;20088;-50
2023/09/09 01:35:49;;;;;;;245.57;175.90;;;;;;;18.16;100.00;101462.41;5032711;28;20021;-51
2023/09/09 01:38:14;;;;;;;240.85;169.00;;;;;;;18.04;100.00;101447.06;5020198;28;20038;-49
2023/09/09 01:40:39;;;;;;;237.68;168.43;;;;;;;18.08;100.00;101456.63;5012673;28;20096;-51
2023/09/09 01:43:05;;;;;;;253.43;171.05;;;;;;;18.10;100.00;101462.72;5012471;28;20034;-50
2023/09/09 01:45:30;;;;;;;256.00;170.75;;;;;;;17.61;100.00;101381.06;4994919;28;20088;-50
2023/09/09 01:47:56;;;;;;;239.43;162.68;;;;;;;17.90;100.00;101438.97;4994652;28;20033;-54
2023/09/09 01:50:21;;;;;;;239.45;162.40;;;;;;;17.77;100.00;101435.25;5028456;28;20037;-51
2023/09/09 01:52:47;;;;;;;237.20;163.25;;;;;;;17.96;100.00;101458.16;5031958;28;20030;-53
2023/09/09 01:55:12;;;;;;;232.82;158.27;;;;;;;17.85;100.00;101443.69;5047530;28;20063;-51
2023/09/09 01:57:38;;;;;;;239.60;162.20;;;;;;;17.81;100.00;101442.09;5031640;28;20044;-54
2023/09/09 02:00:06;;;;;;;242.80;163.55;;;;;;;17.51;100.00;101401.09;5031991;28;20060;-50
2023/09/09 02:02:32;;;;;;;249.10;164.63;;;;;;;17.75;100.00;101450.41;5045764;28;20049;-54
2023/09/09 02:04:57;;;;;;;260.02;167.73;;;;;;;17.69;100.00;101451.59;5032172;28;20482;-54
2023/09/09 02:07:23;;;;;;;252.63;163.77;;;;;;;17.50;100.00;101426.84;5014058;28;20506;-50
2023/09/09 02:09:48;;;;;;;242.23;159.13;;;;;;;17.31;100.00;101400.31;5031853;28;20029;-53
2023/09/09 02:12:13;;;;;;;263.00;164.98;;;;;;;17.57;100.00;101465.53;5031694;28;20549;-48
2023/09/09 02:14:39;;;;;;;249.80;160.40;;;;;;;17.52;100.00;101466.69;5045097;28;20051;-52
2023/09/09 02:17:04;;;;;;;255.27;162.10;;;;;;;17.53;100.00;101460.44;5031065;28;20026;-50
2023/09/09 02:19:30;;;;;;;250.80;159.32;;;;;;;17.50;100.00;101464.13;5032366;28;20502;-52
2023/09/09 02:21:55;;;;;;;248.32;158.93;;;;;;;17.08;100.00;101403.28;5014397;28;20037;-52
2023/09/09 02:24:21;;;;;;;238.18;156.95;;;;;;;17.44;100.00;101459.09;5031667;28;20072;-49
2023/09/09 02:26:46;;;;;;;243.38;156.77;;;;;;;17.06;100.00;101407.81;5012057;28;20033;-54
2023/09/09 02:29:11;;;;;;;240.63;157.50;;;;;;;17.38;100.00;101452.28;5031035;28;20512;-50
2023/09/09 02:31:37;;;;;;;239.98;154.90;;;;;;;17.34;100.00;101445.38;5031716;28;20037;-53
2023/09/09 02:34:02;;;;;;;241.13;153.00;;;;;;;16.88;100.00;101374.16;5031578;28;20048;-52
2023/09/09 02:36:27;;;;;;;239.68;156.07;;;;;;;16.91;100.00;101403.25;5046710;28;20116;-50
2023/09/09 02:38:53;;;;;;;242.00;154.75;;;;;;;16.70;100.00;101375.06;5030189;28;20068;-50
2023/09/09 02:41:18;;;;;;;231.05;153.02;;;;;;;17.11;100.00;101444.81;5011755;28;20188;-53
2023/09/09 02:43:43;;;;;;;242.70;154.30;;;;;;;17.11;100.00;101456.31;5011761;28;20045;-54
2023/09/09 02:46:09;;;;;;;244.70;158.00;;;;;;;16.68;100.00;101383.13;5026492;28;20057;-56
2023/09/09 02:48:34;;;;;;;257.52;158.40;;;;;;;16.70;100.00;101389.22;5019575;28;20052;-51
2023/09/09 02:50:59;;;;;;;246.80;155.38;;;;;;;17.00;100.00;101452.47;5030052;28;20033;-52
2023/09/09 02:53:25;;;;;;;233.48;154.43;;;;;;;16.62;100.00;101377.25;5011720;28;20060;-50
2023/09/09 02:55:50;;;;;;;238.68;152.65;;;;;;;17.02;100.00;101451.47;5011593;28;20492;-49
2023/09/09 02:58:15;;;;;;;238.63;152.13;;;;;;;16.58;100.00;101375.69;5026823;28;20029;-49
2023/09/09 03:00:41;;;;;;;234.27;153.20;;;;;;;16.97;100.00;101442.84;5015358;28;20048;-52
2023/09/09 03:03:06;;;;;;;227.88;150.90;;;;;;;16.53;100.00;101373.22;5015130;28;20491;-50
2023/09/09 03:05:36;;;;;;;238.25;154.05;;;;;;;16.76;100.00;101417.31;5018713;28;20037;-52
2023/09/09 03:08:03;;;;;;;250.73;159.18;;;;;;;16.94;100.00;101455.44;5011532;28;20092;-55
2023/09/09 03:10:28;;;;;;;245.18;154.15;;;;;;;16.81;100.00;101444.56;4993952;28;20030;-51
2023/09/09 03:12:56;;;;;;;227.02;149.10;;;;;;;16.79;100.00;101444.59;5026680;28;20383;-55
2023/09/09 03:15:21;;;;;;;235.63;150.65;;;;;;;16.75;100.00;101437.72;5017416;28;20033;-52
2023/09/09 03:17:47;;;;;;;239.65;152.75;;;;;;;16.40;100.00;101382.72;5046404;28;20033;-52
2023/09/09 03:20:13;;;;;;;256.13;156.98;;;;;;;16.41;100.00;101373.78;5031101;28;20033;-52
2023/09/09 03:22:38;;;;;;;254.73;159.40;;;;;;;16.77;100.00;101445.63;5046611;28;20067;-51
2023/09/09 03:25:04;;;;;;;256.30;157.82;;;;;;;16.33;100.00;101376.84;5046595;28;20159;-50
2023/09/09 03:27:29;;;;;;;244.18;154.45;;;;;;;16.73;100.00;101447.56;5002658;28;20183;-51
2023/09/09 03:29:55;;;;;;;240.75;153.00;;;;;;;16.69;100.00;101447.78;5009871;28;20171;-51
2023/09/09 03:32:20;;;;;;;253.93;156.43;;;;;;;16.24;100.00;101373.75;5011461;28;20041;-52
2023/09/09 03:34:45;;;;;;;243.80;153.15;;;;;;;16.22;100.00;101380.94;5011626;28;20030;-53
2023/09/09 03:37:11;;;;;;;261.45;157.45;;;;;;;16.61;100.00;101442.81;5011642;28;20038;-52
2023/09/09 03:39:36;;;;;;;265.33;161.05;;;;;;;16.18;100.00;101368.72;5021644;28;20487;-54
2023/09/09 03:42:01;;;;;;;263.67;162.40;;;;;;;16.60;100.00;101442.91;5031899;28;20129;-50
2023/09/09 03:44:27;;;;;;;249.55;155.38;;;;;;;16.48;100.00;101427.50;5034583;28;20034;-49
2023/09/09 03:46:52;;;;;;;245.32;155.02;;;;;;;16.48;100.00;101446.13;5035060;28;20029;-49
2023/09/09 03:49:17;;;;;;;236.30;152.68;;;;;;;16.52;100.00;101442.41;5034936;28;20395;-51
2023/09/09 03:51:44;;;;;;;259.05;157.63;;;;;;;16.51;100.00;101444.19;5022865;28;20042;-52
2023/09/09 03:54:10;;;;;;;274.25;166.63;;;;;;;16.04;100.00;101368.50;5029165;28;20045;-52
2023/09/09 03:56:35;;;;;;;258.48;158.57;;;;;;;16.44;100.00;101452.50;5016914;28;20109;-48
2023/09/09 03:59:00;;;;;;;258.65;159.02;;;;;;;16.03;100.00;101386.22;5034270;28;20117;-51
2023/09/09 04:01:26;;;;;;;251.10;152.27;;;;;;;15.91;100.00;101370.84;5034282;28;20422;-48
2023/09/09 04:03:51;;;;;;;244.48;149.90;;;;;;;16.18;100.00;101430.66;5024538;28;20536;-48
2023/09/09 04:06:17;;;;;;;245.57;150.57;;;;;;;16.32;100.00;101468.09;5049117;28;20554;-50
2023/09/09 04:08:42;;;;;;;233.32;148.40;;;;;;;16.27;100.00;101462.13;5016746;28;20033;-50
2023/09/09 04:11:08;;;;;;;243.60;151.82;;;;;;;16.18;100.00;101435.97;5032924;28;20113;-49
2023/09/09 04:13:37;;;;;;;246.02;153.00;;;;;;;15.92;100.00;101401.78;5034077;28;20478;-48
2023/09/09 04:16:02;;;;;;;270.75;160.18;;;;;;;15.97;100.00;101406.88;5048386;28;20077;-49
2023/09/09 04:18:28;;;;;;;248.48;153.35;;;;;;;16.27;100.00;101469.22;5034301;28;20304;-50
2023/09/09 04:20:54;;;;;;;253.48;156.50;;;;;;;15.87;100.00;101393.19;5034319;28;20493;-49
2023/09/09 04:23:19;;;;;;;236.57;150.25;;;;;;;16.29;100.00;101467.34;5033877;28;20036;-52
2023/09/09 04:25:45;;;;;;;242.43;147.95;;;;;;;16.27;100.00;101470.09;5034025;28;20112;-48
2023/09/09 04:28:11;;;;;;;236.25;147.85;;;;;;;16.09;100.00;101447.03;5015030;28;20033;-51
2023/09/09 04:30:40;;;;;;;239.90;146.93;;;;;;;15.76;100.00;101408.75;5015140;28;20414;-51
2023/09/09 04:33:12;;;;;;;238.45;147.45;;;;;;;15.68;100.00;101384.31;5034027;28;20470;-52
2023/09/09 04:35:39;;;;;;;242.23;145.82;;;;;;;15.80;100.00;101402.34;5048916;28;20037;-51
2023/09/09 04:38:05;;;;;;;238.80;144.82;;;;;;;15.90;100.00;101421.38;5016255;28;20030;-53
2023/09/09 04:40:30;;;;;;;250.05;146.55;;;;;;;16.16;100.00;101471.53;5018140;28;20034;-49
2023/09/09 04:42:56;;;;;;;262.92;152.30;;;;;;;16.19;100.00;101474.03;5013785;28;20394;-49
2023/09/09 04:45:23;;;;;;;262.63;151.30;;;;;;;16.17;100.00;101474.09;5014192;28;20034;-50
2023/09/09 04:47:49;;;;;;;228.95;142.02;;;;;;;16.15;100.00;101473.31;5013796;28;20092;-53
2023/09/09 04:50:14;;;;;;;227.18;142.88;;;;;;;16.12;100.00;101469.91;5013956;28;20092;-52
2023/09/09 04:52:39;;;;;;;233.52;141.82;;;;;;;16.10;100.00;101477.97;5020053;28;20045;-49
2023/09/09 04:55:05;;;;;;;232.82;141.45;;;;;;;15.64;100.00;101407.47;5013390;28;20176;-52
2023/09/09 04:57:30;;;;;;;219.52;138.35;;;;;;;16.02;100.00;101482.78;5013619;28;20033;-56
2023/09/09 04:59:55;;;;;;;228.88;141.07;;;;;;;15.62;100.00;101413.78;5013451;28;20042;-52
2023/09/09 05:02:21;;;;;;;222.60;135.80;;;;;;;15.89;100.00;101475.41;5032477;28;20103;-56
2023/09/09 05:04:46;;;;;;;235.40;142.32;;;;;;;16.00;100.00;101489.91;5019433;28;20038;-50
2023/09/09 05:07:12;;;;;;;250.73;150.57;;;;;;;15.71;100.00;101448.75;5028321;28;20041;-50
2023/09/09 05:09:37;;;;;;;257.90;151.30;;;;;;;15.91;100.00;101470.88;5013538;28;20126;-51
2023/09/09 05:12:03;;;;;;;240.52;147.02;;;;;;;15.96;100.00;101475.06;5029460;28;20390;-52
2023/09/09 05:14:28;;;;;;;237.60;142.25;;;;;;;16.06;100.00;101491.44;5027644;28;20049;-53
2023/09/09 05:16:53;;;;;;;237.98;142.27;;;;;;;15.61;100.00;101420.03;5026049;28;20120;-54
2023/09/09 05:19:19;;;;;;;228.48;139.75;;;;;;;15.99;100.00;101482.91;5038229;28;20487;-53
2023/09/09 05:21:44;;;;;;;221.40;136.75;;;;;;;15.70;100.00;101423.13;5029277;28;20044;-55
2023/09/09 05:24:09;;;;;;;230.55;143.32;;;;;;;15.67;100.00;101412.63;5032898;28;20037;-51
2023/09/09 05:26:34;;;;;;;239.65;145.48;;;;;;;16.14;100.00;101482.19;5017499;28;20034;-52
2023/09/09 05:29:02;;;;;;;240.00;142.32;;;;;;;16.16;100.00;101487.47;5021352;28;20370;-51
2023/09/09 05:31:27;;;;;;;261.63;151.35;;;;;;;15.72;100.00;101405.34;5003823;28;20084;-51
2023/09/09 05:33:52;;;;;;;234.95;141.95;;;;;;;16.24;100.00;101490.63;5028383;28;20142;-51
2023/09/09 05:36:17;;;;;;;252.48;146.65;;;;;;;16.27;100.00;101485.16;5013896;28;20038;-50
2023/09/09 05:38:43;;;;;;;245.80;141.27;;;;;;;16.25;100.00;101479.94;5025358;28;20056;-48
2023/09/09 05:41:08;;;;;;;222.63;138.60;;;;;;;16.33;100.00;101476.91;5031785;28;20064;-48
2023/09/09 05:43:33;;;;;;;244.13;143.50;;;;;;;16.08;100.00;101432.00;5032771;28;20140;-52
2023/09/09 05:46:00;;;;;;;240.73;142.15;;;;;;;15.99;100.00;101410.34;5031399;28;20029;-52
2023/09/09 05:48:25;;;;;;;250.20;144.88;;;;;;;16.43;100.00;101493.31;5015713;28;20037;-51
2023/09/09 05:50:51;;;;;;;241.00;142.00;;;;;;;16.38;100.00;101466.94;5032517;28;20505;-51
2023/09/09 05:53:16;;;;;;;243.45;142.10;;;;;;;16.55;100.00;101485.63;5014614;28;20044;-51
2023/09/09 05:55:41;;;;;;;237.70;141.93;;;;;;;16.19;100.00;101418.25;5030949;28;20061;-54
2023/09/09 05:58:07;;;;;;;232.20;139.38;;;;;;;16.61;100.00;101471.19;5018821;28;20038;-54
2023/09/09 06:00:33;;;;;;;227.65;138.02;;;;;;;16.29;100.00;101407.13;5027529;28;20081;-53
2023/09/09 06:02:58;;;;;;;241.10;142.55;;;;;;;16.70;100.00;101468.97;5012373;28;20050;-53
2023/09/09 06:05:23;;;;;;;230.88;137.13;;;;;;;16.49;100.00;101422.13;5015651;28;20040;-49
2023/09/09 06:07:49;;;;;;;212.45;133.55;;;;;;;16.96;100.00;101490.81;5042381;28;20038;-51
2023/09/09 06:10:14;;;;;;;226.20;137.77;;;;;;;16.48;100.00;101401.81;5030182;28;20033;-51
2023/09/09 06:12:40;;;;;;;243.15;140.52;;;;;;;17.00;100.00;101492.38;5038800;28;20392;-48
2023/09/09 06:15:06;;;;;;;239.55;141.07;;;;;;;16.77;100.00;101437.66;5031871;28;20034;-50
2023/09/09 06:17:31;;;;;;;196.82;128.98;;;;;;;17.18;100.00;101489.69;5032048;28;20454;-50
2023/09/09 06:19:56;;;;;;;204.07;131.75;;;;;;;16.93;100.00;101435.94;5032240;28;20037;-51
2023/09/09 06:22:22;;;;;;;205.30;134.07;;;;;;;17.11;100.00;101458.13;5031514;28;20222;-49
2023/09/09 06:24:47;;;;;;;201.00;125.38;;;;;;;17.30;100.00;101470.44;5062683;28;20032;-50
2023/09/09 06:27:12;;;;;;;220.73;137.02;;;;;;;17.60;100.00;101515.13;5032592;28;20128;-50
2023/09/09 06:29:38;;;;;;;207.55;133.57;;;;;;;17.71;100.00;101510.09;5012190;28;20049;-50
2023/09/09 06:32:06;;;;;;;220.13;134.30;;;;;;;17.85;100.00;101512.91;5011940;28;20034;-52
2023/09/09 06:34:31;;;;;;;202.18;132.02;;;;;;;17.85;100.00;101496.94;5011334;28;20077;-52
2023/09/09 06:36:57;;;;;;;183.82;127.13;;;;;;;17.98;100.00;101493.53;5012111;28;20072;-51
2023/09/09 06:39:22;;;;;;;170.60;124.47;;;;;;;18.19;100.00;101496.88;5011844;28;20508;-53
2023/09/09 06:41:47;;;;;;;159.50;118.03;;;;;;;18.52;100.00;101513.75;5011828;28;20042;-51
2023/09/09 06:44:13;;;;;;;149.95;112.60;;;;;;;18.68;100.00;101520.91;5011764;28;20491;-50
2023/09/09 06:46:38;;;;;;;148.32;112.35;;;;;;;18.80;100.00;101523.75;5011873;28;20387;-53
2023/09/09 06:49:03;;;;;;;153.10;115.53;;;;;;;18.50;100.00;101456.97;5011759;28;20038;-52
2023/09/09 06:51:29;;;;;;;139.52;107.40;;;;;;;18.42;100.00;101434.31;5027181;28;20488;-51
2023/09/09 06:53:54;;;;;;;147.48;110.90;;;;;;;19.10;100.00;101540.72;5011809;28;20033;-48
2023/09/09 06:56:19;;;;;;;157.73;116.20;;;;;;;19.21;100.00;101533.88;5011455;28;20065;-48
2023/09/09 06:58:45;;;;;;;157.07;119.47;;;;;;;19.33;100.00;101531.38;5011706;28;20113;-50
2023/09/09 07:01:11;;;;;;;143.38;113.38;;;;;;;19.36;100.00;101509.84;5026671;28;20071;-50
2023/09/09 07:03:37;;;;;;;145.98;112.68;;;;;;;19.16;100.00;101448.75;4993942;28;20137;-49
2023/09/09 07:06:03;;;;;;;151.90;118.47;;;;;;;19.47;100.00;101488.75;5012081;28;20113;-51
2023/09/09 07:08:28;;;;;;;144.80;115.53;;;;;;;19.73;100.00;101521.09;4996506;28;20384;-50
2023/09/09 07:10:56;;;;;;;138.80;115.53;;;;;;;19.91;100.00;101520.81;5011674;28;20034;-48
2023/09/09 07:13:22;;;;;;;132.43;110.28;;;;;;;20.02;100.00;101505.00;5026853;28;20077;-52
2023/09/09 07:15:50;;;;;;;134.38;112.22;;;;;;;20.24;100.00;101520.59;5028126;28;20121;-48
2023/09/09 07:18:15;;;;;;;124.40;104.70;;;;;;;20.39;100.00;101519.69;5015884;28;20391;-49
2023/09/09 07:20:42;;;;;;;117.32;98.18;;;;;;;20.48;100.00;101520.91;5031075;28;20034;-51
2023/09/09 07:23:07;;;;;;;113.32;97.65;;;;;;;20.15;100.00;101455.19;5015506;28;20468;-51
2023/09/09 07:25:33;;;;;;;110.40;95.38;;;;;;;20.86;100.00;101516.66;5015669;28;20058;-51
2023/09/09 07:27:59;;;;;;;110.13;97.40;;;;;;;20.89;100.00;101492.38;5015652;28;20383;-49
2023/09/09 07:30:24;;;;;;;101.40;89.18;;;;;;;21.26;100.00;101531.00;5015503;28;20046;-49
2023/09/09 07:32:49;;;;;;;98.75;88.10;;;;;;;21.45;100.00;101536.03;4997650;28;20120;-52
2023/09/09 07:35:15;;;;;;;92.75;82.57;;;;;;;21.24;100.00;101474.91;5015445;28;20084;-50
2023/09/09 07:37:40;;;;;;;87.40;78.07;;;;;;;21.44;100.00;101467.34;4997738;28;20030;-52
2023/09/09 07:40:06;;;;;;;84.65;75.80;;;;;;;21.97;100.00;101536.06;5015324;28;20125;-48
2023/09/09 07:42:36;;;;;;;78.88;70.00;;;;;;;21.78;100.00;101489.03;5016931;28;20037;-52
2023/09/09 07:45:01;;;;;;;76.07;68.00;;;;;;;22.23;100.00;101519.88;5018363;28;20446;-50
2023/09/09 07:47:27;;;;;;;71.97;64.45;;;;;;;21.99;100.00;101456.38;5015798;28;20045;-50
2023/09/09 07:49:52;;;;;;;75.60;67.80;;;;;;;22.78;100.00;101548.19;5015520;28;20038;-48
2023/09/09 07:52:17;;;;;;;58.28;52.28;;;;;;;23.19;100.00;101555.91;5014188;28;20109;-52
2023/09/09 07:54:43;;;;;;;39.72;35.90;;;;;;;23.47;100.00;101518.84;5014575;28;20038;-54
2023/09/09 07:57:08;;;;;;;45.60;40.70;;;;;;;24.36;100.00;101599.81;5015116;28;20403;-55
2023/09/09 07:59:34;;;;;;;49.72;44.88;;;;;;;24.82;100.00;101591.69;5014737;28;20045;-52
2023/09/09 08:02:02;;;;;;;48.60;43.40;;;;;;;25.28;100.00;101596.88;5002511;28;20471;-49
2023/09/09 08:04:27;;;;;;;45.47;41.08;;;;;;;25.39;100.00;101553.75;5014994;28;20149;-51
2023/09/09 08:06:53;;;;;;;48.75;43.95;;;;;;;25.91;100.00;101597.94;5014903;28;20149;-53
2023/09/09 08:09:22;;;;;;;45.40;40.90;;;;;;;26.00;100.00;101605.25;5014744;28;20096;-53
2023/09/09 08:11:48;;;;;;;45.90;41.25;;;;;;;26.18;100.00;101595.63;5014791;28;20038;-50
2023/09/09 08:14:17;;;;;;;46.95;42.33;;;;;;;26.24;100.00;101555.47;5015089;28;20048;-52
2023/09/09 08:16:46;;;;;;;44.53;40.08;;;;;;;26.58;100.00;101607.38;5017589;28;20509;-51
2023/09/09 08:19:11;;;;;;;44.15;39.88;;;;;;;26.78;100.00;101551.59;5014527;28;20036;-50
2023/09/09 08:21:36;;;;;;;44.13;39.53;;;;;;;27.27;100.00;101607.53;5014263;28;20042;-47
2023/09/09 08:24:02;;;;;;;39.97;36.05;;;;;;;27.33;100.00;101617.78;5131638;22;20087;-47
2023/09/09 08:26:28;;;;;;;38.92;35.22;;;;;;;27.52;100.00;101631.41;5049388;28;20045;-53
2023/09/09 08:28:54;;;;;;;38.90;35.20;;;;;;;28.00;100.00;101626.00;5132418;22;20126;-50
2023/09/09 08:31:20;;;;;;;41.47;37.38;;;;;;;28.28;100.00;101633.28;5034878;28;20038;-51
2023/09/09 08:33:45;;;;;;;37.17;33.78;;;;;;;28.53;100.00;101630.94;5035510;28;20037;-51
2023/09/09 08:36:11;;;;;;;37.38;33.95;;;;;;;28.49;100.00;101578.94;5037088;28;20029;-50
2023/09/09 08:38:37;;;;;;;36.33;33.05;;;;;;;28.97;100.00;101644.69;5049982;28;20033;-50
2023/09/09 08:41:48;;;;;;;31.23;28.40;;;;;;;29.42;100.00;101649.34;5016063;28;20441;-50
2023/09/09 08:44:25;;;;;;;;;;;;;;;29.99;100.00;101661.66;5034402;28;20463;-53
2023/09/09 08:46:53;;;;;;;29.83;27.13;;;;;;;29.66;100.00;101597.19;5035132;28;19978;-53
2023/09/09 08:49:21;;;;;;;30.83;27.60;;;;;;;29.95;100.00;101617.69;5049166;28;20464;-51
2023/09/09 08:51:49;;;;;;;33.03;29.75;;;;;;;30.06;100.00;101665.50;5049548;28;20034;-52
2023/09/09 08:54:15;;;;;;;28.92;26.10;;;;;;;29.86;100.00;101620.50;5015967;28;20432;-50
2023/09/09 08:56:41;;;;;;;26.90;24.48;;;;;;;30.34;100.00;101663.50;5015890;28;20041;-51
2023/09/09 08:59:07;;;;;;;23.65;21.35;;;;;;;30.63;100.00;101675.81;5049109;28;20107;-50
2023/09/09 09:01:33;;;;;;;27.90;25.13;;;;;;;30.56;100.00;101666.59;5033591;28;20037;-50
2023/09/09 09:03:59;;;;;;;26.75;24.45;;;;;;;30.53;100.00;101633.47;5049110;28;20049;-54
2023/09/09 09:06:26;;;;;;;25.25;23.05;;;;;;;30.78;100.00;101645.34;5033670;28;20029;-52
2023/09/09 09:08:51;;;;;;;25.25;23.02;;;;;;;31.05;100.00;101681.38;5033669;28;20394;-49
2023/09/09 09:11:17;;;;;;;24.70;22.30;;;;;;;30.96;100.00;101629.84;4999479;28;20285;-51
2023/09/09 09:13:42;;;;;;;23.33;20.83;;;;;;;31.13;100.00;101624.31;5015515;28;20033;-54
2023/09/09 09:16:08;;;;;;;21.67;19.67;;;;;;;31.41;100.00;101645.81;5033404;28;20044;-51
2023/09/09 09:18:37;;;;;;;23.63;20.83;;;;;;;31.29;100.00;101658.88;5033660;28;20525;-52
2023/09/09 09:21:07;;;;;;;19.65;17.83;;;;;;;31.33;100.00;101641.22;5033325;28;20029;-53
2023/09/09 09:23:32;;;;;;;23.48;21.38;;;;;;;31.83;100.00;101694.78;5017589;28;20021;-52
2023/09/09 09:25:58;;;;;;;24.95;22.75;;;;;;;31.66;100.00;101693.91;5033544;28;20036;-54
2023/09/09 09:28:31;;;;;;;24.35;22.15;;;;;;;31.64;100.00;101694.06;5032824;28;20060;-48
2023/09/09 09:30:57;;;;;;;25.48;23.08;;;;;;;31.65;100.00;101678.59;5032839;28;20052;-52
2023/09/09 09:33:24;;;;;;;24.48;22.15;;;;;;;31.98;100.00;101698.56;5015344;28;20041;-51
2023/09/09 09:35:50;;;;;;;20.88;18.90;;;;;;;32.36;100.00;101689.78;4999127;28;20037;-49
2023/09/09 09:38:17;;;;;;;21.27;19.20;;;;;;;32.53;100.00;101666.09;5048322;28;20432;-50
2023/09/09 09:40:43;;;;;;;19.27;17.45;;;;;;;32.90;100.00;101709.19;5047071;28;20099;-51
2023/09/09 09:43:19;;;;;;;19.50;17.65;;;;;;;32.95;100.00;101653.09;5032188;28;20036;-52
2023/09/09 09:45:44;;;;;;;18.95;17.23;;;;;;;33.45;100.00;101718.22;5017710;28;20033;-49
2023/09/09 09:48:10;;;;;;;18.98;17.27;;;;;;;33.57;100.00;101681.31;5032669;28;20387;-53
2023/09/09 09:50:36;;;;;;;19.52;17.73;;;;;;;33.39;100.00;101640.63;5032785;28;20486;-51
2023/09/09 09:53:06;;;;;;;19.67;17.88;;;;;;;33.82;100.00;101684.78;5032626;28;20063;-54
2023/09/09 09:55:35;;;;;;;18.58;16.77;;;;;;;33.81;100.00;101704.94;5032316;28;20191;-53
2023/09/09 09:58:05;;;;;;;18.20;16.27;;;;;;;33.46;100.00;101648.97;5032351;28;20056;-52
2023/09/09 10:00:31;;;;;;;16.05;14.55;;;;;;;33.70;100.00;101664.38;5032730;28;20040;-51
2023/09/09 10:03:01;;;;;;;17.98;15.40;;;;;;;33.78;100.00;101706.16;5014907;28;20365;-52
2023/09/09 10:05:29;;;;;;;16.88;15.18;;;;;;;33.09;100.00;101607.88;5032583;28;20030;-50
2023/09/09 10:08:27;;;;;;;16.20;14.82;;;;;;;33.74;100.00;101709.44;5032121;28;20038;-54
2023/09/09 10:11:08;;;;;;;16.33;14.68;;;;;;;34.04;100.00;101699.47;5032443;28;20390;-49
2023/09/09 10:13:47;;;;;;;13.65;12.45;;;;;;;34.03;100.00;101693.19;5024116;28;20113;-52
2023/09/09 10:16:13;;;;;;;16.23;13.43;;;;;;;33.46;100.00;101689.03;5032129;28;20026;-49
2023/09/09 10:18:39;;;;;;;15.40;14.00;;;;;;;33.06;100.00;101640.94;5047625;28;20044;-50
2023/09/09 10:21:06;;;;;;;12.05;11.05;;;;;;;33.17;100.00;101646.03;5032321;28;20056;-48
2023/09/09 10:23:32;;;;;;;12.93;11.82;;;;;;;33.45;100.00;101696.38;5032126;28;20068;-48
2023/09/09 10:25:59;;;;;;;13.43;11.90;;;;;;;33.39;100.00;101684.28;5032073;28;20029;-48
2023/09/09 10:28:26;;;;;;;11.68;10.57;;;;;;;33.89;100.00;101710.34;5031652;28;20356;-47
2023/09/09 10:30:53;;;;;;;14.45;10.90;;;;;;;33.75;100.00;101660.09;5032008;28;20053;-53
2023/09/09 10:33:20;;;;;;;13.60;12.13;;;;;;;33.54;100.00;101654.38;5031961;28;20041;-50
2023/09/09 10:35:46;;;;;;;10.63;9.73;;;;;;;33.93;100.00;101698.03;5032215;28;20064;-51
2023/09/09 10:38:13;;;;;;;13.20;10.70;;;;;;;34.15;100.00;101704.59;5031996;28;20552;-51
2023/09/09 10:40:39;;;;;;;11.43;10.32;;;;;;;34.12;100.00;101703.06;5031842;28;20033;-53
2023/09/09 10:43:04;;;;;;;12.45;9.02;;;;;;;34.11;100.00;101706.81;5031745;28;20031;-49
2023/09/09 10:45:32;;;;;;;9.02;8.15;;;;;;;34.00;100.00;101625.25;5031787;28;20113;-49
2023/09/09 10:48:03;;;;;;;8.20;7.18;;;;;;;34.70;100.00;101653.19;5031766;28;20025;-52